Time;durP1;ratioP1;P1;durP2;ratioP2;P2;SDS_P1;SDS_P2;PMS_P1;PMS_P2;Temp;Humidity;BMP_temperature;BMP_pressure;BME280_temperature;BME280_humidity;BME280_pressure;Samples;Min_cycle;Max_cycle;Signal;HPM_P1;HPM_P2
2022/02/04 00:04:47;;;;;;;;;13.25;13.25;;;;;11.43;62.23;101148.44;2043206;28;48579;-57
2022/02/04 00:21:23;;;;;;;;;14.25;13.75;;;;;11.42;62.04;101135.16;2053578;28;47802;-59
2022/02/04 00:23:30;;;;;;;;;13.67;13.67;;;;;11.39;62.39;101127.25;2045464;28;47637;-56
2022/02/04 00:24:30;;;;;;;;;10.00;10.00;;;;;11.38;62.12;101130.81;2042647;28;47672;-56
2022/02/04 00:25:53;;;;;;;;;14.67;14.67;;;;;11.36;62.00;101129.97;2058447;28;47532;-58
2022/02/04 00:27:01;;;;;;;;;16.75;15.25;;;;;11.36;62.16;101129.97;2061656;28;47646;-57
2022/02/04 00:28:16;;;;;;;;;14.00;11.00;;;;;11.36;62.10;101133.50;2060589;28;47708;-56
2022/02/04 00:29:26;;;;;;;;;15.25;13.25;;;;;11.35;62.38;101131.75;2057098;28;48266;-54
2022/02/04 00:30:33;;;;;;;;;14.75;14.75;;;;;11.36;62.21;101135.28;2061901;28;48209;-57
2022/02/04 00:31:38;;;;;;;;;13.75;13.50;;;;;11.35;62.39;101137.06;2055019;28;47533;-58
2022/02/04 00:32:41;;;;;;;;;15.25;14.00;;;;;11.33;62.22;101130.91;2061205;28;48124;-57
2022/02/04 00:33:45;;;;;;;;;14.50;13.25;;;;;11.33;62.28;101138.88;2052762;28;47681;-56
2022/02/04 00:34:52;;;;;;;;;13.25;12.50;;;;;11.32;62.44;101131.81;2057121;28;47750;-57
2022/02/04 00:36:03;;;;;;;;;21.40;16.80;;;;;11.33;62.43;101135.34;2064531;28;48197;-56
2022/02/04 00:38:34;;;;;;;;;12.75;12.75;;;;;11.35;62.35;101129.09;2037680;28;47892;-58
2022/02/04 00:39:43;;;;;;;;;9.75;9.75;;;;;11.35;62.59;101125.56;2021053;29;48719;-57
2022/02/04 00:40:47;;;;;;;;;15.00;12.50;;;;;11.35;62.52;101120.25;2018724;29;46110;-58
2022/02/04 00:41:48;;;;;;;;;12.25;12.00;;;;;11.35;62.37;101123.78;2030964;28;47507;-58
2022/02/04 00:42:51;;;;;;;;;11.75;11.75;;;;;11.36;62.58;101125.53;2038132;28;48008;-58
2022/02/04 00:43:54;;;;;;;;;13.40;13.20;;;;;11.35;62.50;101118.47;2035806;28;47547;-57
2022/02/04 00:45:10;;;;;;;;;16.20;14.80;;;;;11.37;62.38;101121.09;2037635;28;47704;-57
2022/02/04 00:46:18;;;;;;;;;15.40;14.00;;;;;11.37;62.36;101121.97;2025296;28;47904;-58
2022/02/04 00:47:22;;;;;;;;;13.25;12.50;;;;;11.36;62.54;101117.56;2032423;28;47985;-57
2022/02/04 00:48:53;;;;;;;;;12.75;12.75;;;;;11.36;62.55;101117.56;2036972;28;48308;-57
2022/02/04 00:50:02;;;;;;;;;12.75;12.00;;;;;11.38;62.41;101117.53;2034147;28;47687;-57
2022/02/04 00:51:13;;;;;;;;;12.50;12.50;;;;;11.38;62.36;101112.22;2038545;28;47965;-56
2022/02/04 00:53:21;;;;;;;;;9.33;9.33;;;;;11.38;62.43;101118.41;2042995;28;48518;-57
2022/02/04 00:56:06;;;;;;;;;12.25;12.25;;;;;11.39;62.26;101122.81;2036176;28;48428;-58
2022/02/04 01:13:35;;;;;;;;;13.75;13.75;;;;;11.34;62.61;101113.19;2013097;29;47045;-57
2022/02/04 01:26:26;;;;;;;;;11.50;11.50;;;;;11.31;62.82;101119.44;2029508;29;47367;-56
2022/02/04 01:27:27;;;;;;;;;15.00;12.67;;;;;11.30;62.70;101120.31;2029090;28;47874;-57
2022/02/04 01:28:28;;;;;;;;;11.33;11.00;;;;;11.30;62.56;101120.31;2029675;29;46879;-58
2022/02/04 01:29:35;;;;;;;;;13.00;12.75;;;;;11.31;62.97;101118.56;2028999;28;47777;-56
2022/02/04 01:30:38;;;;;;;;;8.25;7.75;;;;;11.31;63.00;101122.09;2030632;29;46090;-55
2022/02/04 01:31:38;;;;;;;;;13.25;12.75;;;;;11.31;62.98;101123.88;2026487;29;47835;-56
2022/02/04 01:32:38;;;;;;;;;11.33;11.33;;;;;11.31;62.72;101129.19;2033991;28;47889;-58
2022/02/04 01:33:39;;;;;;;;;14.33;14.00;;;;;11.31;62.97;101122.09;2031619;28;47228;-56
2022/02/04 01:34:39;;;;;;;;;13.00;12.33;;;;;11.30;62.88;101130.06;2031150;28;48051;-57
2022/02/04 01:35:40;;;;;;;;;11.00;10.33;;;;;11.30;62.71;101127.41;2053435;28;47674;-57
2022/02/04 01:36:41;;;;;;;;;14.00;12.00;;;;;11.29;62.87;101125.66;2071140;28;47290;-58
2022/02/04 01:37:41;;;;;;;;;13.33;13.33;;;;;11.30;63.08;101128.28;2074379;28;47523;-58
2022/02/04 01:38:43;;;;;;;;;15.33;15.00;;;;;11.30;62.53;101128.28;2077289;28;47721;-58
2022/02/04 01:39:43;;;;;;;;;12.00;11.50;;;;;11.32;62.99;101120.31;2077563;28;47928;-55
2022/02/04 01:40:43;;;;;;;;;7.00;6.67;;;;;11.32;62.82;101120.31;2078240;28;47494;-58
2022/02/04 01:41:44;;;;;;;;;11.67;11.67;;;;;11.32;62.76;101115.00;2076839;28;47988;-57
2022/02/04 01:42:44;;;;;;;;;13.67;13.33;;;;;11.33;63.04;101119.41;2078047;28;47502;-59
2022/02/04 01:43:45;;;;;;;;;12.00;12.00;;;;;11.32;62.99;101118.53;2075350;28;47972;-58
2022/02/04 01:44:45;;;;;;;;;12.00;12.00;;;;;11.33;62.72;101111.44;2077394;28;48171;-58
2022/02/04 01:45:46;;;;;;;;;14.33;12.00;;;;;11.32;62.99;101109.69;2076164;28;48087;-59
2022/02/04 01:46:46;;;;;;;;;15.00;13.00;;;;;11.32;62.64;101120.31;2077611;28;47490;-56
2022/02/04 01:47:56;;;;;;;;;12.00;12.00;;;;;11.30;62.81;101115.00;2077123;28;47319;-58
2022/02/04 01:48:56;;;;;;;;;15.00;12.75;;;;;11.31;62.74;101110.59;2078363;28;47758;-57
2022/02/04 01:49:57;;;;;;;;;13.67;13.67;;;;;11.31;63.00;101113.25;2077231;28;46947;-58
2022/02/04 01:50:59;;;;;;;;;14.75;14.75;;;;;11.30;62.80;101111.47;2078374;28;47609;-57
2022/02/04 01:52:00;;;;;;;;;14.50;14.50;;;;;11.31;63.07;101116.78;2076709;28;48325;-58
2022/02/04 01:53:01;;;;;;;;;11.67;11.33;;;;;11.31;63.07;101119.44;2078091;28;47665;-56
2022/02/04 01:54:01;;;;;;;;;11.25;11.25;;;;;11.30;62.88;101117.66;2076687;28;48236;-58
2022/02/04 01:55:03;;;;;;;;;10.67;10.00;;;;;11.32;62.99;101117.66;2086486;28;47729;-58
2022/02/04 01:56:07;;;;;;;;;13.75;13.75;;;;;11.31;63.02;101121.22;2084242;28;47864;-57
2022/02/04 01:57:08;;;;;;;;;14.00;13.75;;;;;11.31;63.09;101119.44;2079199;28;48034;-57
2022/02/04 01:58:09;;;;;;;;;16.00;13.00;;;;;11.33;62.81;101111.44;2074164;28;47843;-56
2022/02/04 01:59:10;;;;;;;;;15.75;14.75;;;;;11.33;62.78;101120.28;2084073;28;47955;-59
2022/02/04 02:00:11;;;;;;;;;16.00;13.00;;;;;11.33;62.95;101117.63;2077063;28;48016;-57
2022/02/04 02:01:12;;;;;;;;;13.25;13.25;;;;;11.33;62.84;101114.97;2079354;28;47698;-58
2022/02/04 02:02:13;;;;;;;;;13.67;13.67;;;;;11.32;62.68;101121.19;2077673;28;47726;-58
2022/02/04 02:03:14;;;;;;;;;15.25;14.25;;;;;11.32;62.73;101112.34;2080651;28;48363;-58
2022/02/04 02:04:15;;;;;;;;;16.33;15.00;;;;;11.32;62.97;101115.88;2075176;28;47401;-55
2022/02/04 02:05:15;;;;;;;;;14.75;14.75;;;;;11.30;63.26;101117.66;2079513;28;46923;-55
2022/02/04 02:06:38;;;;;;;;;19.00;17.00;;;;;11.31;62.76;101118.56;2075965;28;45926;-56
2022/02/04 02:07:46;;;;;;;;;15.25;14.25;;;;;11.31;62.83;101115.91;2072848;28;46938;-56
2022/02/04 02:08:46;;;;;;;;;17.60;15.00;;;;;11.31;62.90;101118.56;2079021;28;47585;-56
2022/02/04 02:10:51;;;;;;;;;15.25;14.50;;;;;11.30;62.92;101114.13;2078483;28;48052;-59
2022/02/04 02:11:56;;;;;;;;;14.75;14.00;;;;;11.29;63.10;101112.38;2077603;28;48476;-58
2022/02/04 02:14:09;;;;;;;;;14.00;12.75;;;;;11.28;63.17;101118.59;2079022;28;47584;-58
2022/02/04 02:16:43;;;;;;;;;13.00;11.25;;;;;11.27;63.02;101107.09;2075872;28;47904;-58
2022/02/04 02:56:57;;;;;;;;;13.00;13.00;;;;;11.19;63.48;101086.00;2069691;28;47702;-58
2022/02/04 02:59:10;;;;;;;;;11.33;10.33;;;;;11.18;63.65;101078.94;2072679;28;47865;-58
2022/02/04 03:01:33;;;;;;;;;9.00;9.00;;;;;11.17;63.74;101071.84;2055721;28;48085;-56
2022/02/04 03:02:34;;;;;;;;;11.00;11.00;;;;;11.18;63.81;101076.28;2062590;28;48223;-58
2022/02/04 03:03:35;;;;;;;;;11.33;10.33;;;;;11.18;63.67;101078.06;2061334;28;47415;-57
2022/02/04 03:04:36;;;;;;;;;12.50;10.75;;;;;11.17;63.88;101069.19;2063139;28;47677;-55
2022/02/04 03:05:37;;;;;;;;;14.00;12.33;;;;;11.19;63.85;101078.03;2061577;28;47980;-58
2022/02/04 03:06:39;;;;;;;;;9.67;8.67;;;;;11.20;63.59;101073.59;2062745;28;47721;-56
2022/02/04 03:07:39;;;;;;;;;9.00;9.00;;;;;11.20;63.72;101070.94;2061363;28;47964;-56
2022/02/04 03:08:40;;;;;;;;;10.67;9.67;;;;;11.20;63.85;101079.78;2062667;28;47477;-58
2022/02/04 03:09:40;;;;;;;;;9.00;8.00;;;;;11.20;63.94;101071.81;2061939;28;47602;-56
2022/02/04 03:10:41;;;;;;;;;9.67;8.33;;;;;11.20;63.83;101079.78;2062627;28;47479;-56
2022/02/04 03:11:41;;;;;;;;;13.00;10.00;;;;;11.20;63.86;101074.47;2061701;28;48048;-55
2022/02/04 03:12:44;;;;;;;;;12.33;10.00;;;;;11.21;63.72;101070.03;2060862;28;47711;-56
2022/02/04 03:13:44;;;;;;;;;9.00;9.00;;;;;11.19;63.71;101070.06;2062403;28;47752;-56
2022/02/04 03:14:44;;;;;;;;;10.33;10.33;;;;;11.18;63.68;101067.44;2070357;28;47314;-56
2022/02/04 03:15:45;;;;;;;;;10.67;9.67;;;;;11.17;63.87;101069.19;2067404;28;48270;-58
2022/02/04 03:16:45;;;;;;;;;8.00;8.00;;;;;11.17;63.96;101066.53;2069490;28;47460;-56
2022/02/04 03:18:01;;;;;;;;;12.67;11.00;;;;;11.17;63.84;101066.53;2068903;28;47458;-56
2022/02/04 03:19:04;;;;;;;;;10.00;10.00;;;;;11.18;63.91;101067.44;2070571;28;47758;-57
2022/02/04 03:20:09;;;;;;;;;12.25;10.00;;;;;11.18;64.19;101070.97;2067936;28;48154;-58
2022/02/04 03:22:14;;;;;;;;;9.75;9.00;;;;;11.17;64.25;101066.53;2067111;28;47438;-56
2022/02/04 03:23:16;;;;;;;;;11.50;11.50;;;;;11.18;64.04;101059.47;2070770;28;48260;-57
2022/02/04 03:24:20;;;;;;;;;11.75;10.00;;;;;11.18;64.15;101059.47;2065764;28;47584;-57
2022/02/04 03:25:23;;;;;;;;;7.75;6.75;;;;;11.19;64.22;101055.91;2070165;28;48037;-55
2022/02/04 03:27:43;;;;;;;;;8.00;8.00;;;;;11.18;64.59;101051.50;2068928;28;48115;-57
2022/02/04 03:28:43;;;;;;;;;9.50;8.75;;;;;11.19;64.49;101045.28;2070343;28;47829;-57
2022/02/04 03:30:10;;;;;;;;;8.67;8.67;;;;;11.20;64.71;101052.34;2067550;28;48334;-57
2022/02/04 03:31:06;;;;;;;;;9.25;7.00;;;;;11.20;64.71;101039.94;2067113;28;48003;-57
2022/02/04 03:32:09;;;;;;;;;10.25;9.75;;;;;11.22;64.37;101052.31;2068115;28;47912;-59
2022/02/04 03:33:11;;;;;;;;;11.00;10.00;;;;;11.23;64.43;101051.41;2058490;28;47461;-59
2022/02/04 03:34:11;;;;;;;;;14.00;9.75;;;;;11.20;64.88;101052.34;2059011;28;47450;-57
2022/02/04 03:35:18;;;;;;;;;7.33;7.33;;;;;11.21;64.32;101051.44;2062976;28;47057;-57
2022/02/04 03:36:18;;;;;;;;;9.00;8.00;;;;;11.20;64.63;101047.91;2057952;28;47133;-55
2022/02/04 03:37:19;;;;;;;;;10.33;8.00;;;;;11.20;64.49;101047.03;2062139;28;47959;-55
2022/02/04 03:38:19;;;;;;;;;10.00;9.67;;;;;11.18;64.49;101043.53;2058473;28;47177;-55
2022/02/04 03:39:20;;;;;;;;;11.00;8.67;;;;;11.18;64.45;101040.88;2079976;28;47980;-56
2022/02/04 03:40:20;;;;;;;;;8.33;8.33;;;;;11.19;64.75;101055.91;2074774;28;47458;-58
2022/02/04 03:41:21;;;;;;;;;8.00;7.33;;;;;11.19;64.63;101055.91;2078227;28;47339;-57
2022/02/04 03:42:21;;;;;;;;;9.00;9.00;;;;;11.18;64.93;101046.19;2077899;28;47485;-58
2022/02/04 03:43:22;;;;;;;;;9.00;8.67;;;;;11.18;64.54;101048.84;2076969;28;47423;-58
2022/02/04 03:44:22;;;;;;;;;9.00;8.67;;;;;11.18;64.73;101039.09;2077790;28;48084;-57
2022/02/04 03:45:23;;;;;;;;;8.00;8.00;;;;;11.18;64.52;101043.53;2079081;28;47497;-57
2022/02/04 03:46:23;;;;;;;;;7.00;7.00;;;;;11.19;64.58;101050.59;2077763;28;48384;-59
2022/02/04 03:47:24;;;;;;;;;9.00;9.00;;;;;11.19;64.45;101043.50;2084086;28;47631;-56
2022/02/04 03:48:24;;;;;;;;;10.33;7.33;;;;;11.21;64.59;101048.78;2073727;28;47572;-58
2022/02/04 03:49:25;;;;;;;;;10.33;9.00;;;;;11.20;64.57;101044.38;2074040;28;47865;-58
2022/02/04 03:50:25;;;;;;;;;5.67;5.67;;;;;11.19;64.65;101050.59;2058031;28;47419;-58
2022/02/04 03:51:26;;;;;;;;;10.33;9.00;;;;;11.19;64.67;101051.47;2067225;28;47620;-57
2022/02/04 03:52:26;;;;;;;;;9.00;7.67;;;;;11.18;64.39;101052.38;2075676;28;48041;-57
2022/02/04 03:53:26;;;;;;;;;11.00;9.67;;;;;11.17;64.50;101047.94;2084199;28;47053;-56
2022/02/04 03:54:27;;;;;;;;;7.00;7.00;;;;;11.18;64.63;101041.75;2079201;28;47266;-57
2022/02/04 03:55:28;;;;;;;;;9.67;9.67;;;;;11.18;64.58;101046.19;2078845;28;48182;-57
2022/02/04 03:56:28;;;;;;;;;10.67;10.33;;;;;11.17;64.60;101039.97;2078817;28;47768;-58
2022/02/04 03:57:29;;;;;;;;;10.33;10.33;;;;;11.16;64.32;101048.84;2079521;28;47796;-58
2022/02/04 03:58:31;;;;;;;;;11.67;11.67;;;;;11.17;64.57;101044.41;2078475;28;47588;-58
2022/02/04 03:59:32;;;;;;;;;9.25;9.25;;;;;11.15;64.68;101046.22;2078475;28;48107;-59
2022/02/04 04:00:32;;;;;;;;;11.00;11.00;;;;;11.14;64.65;101045.34;2078836;28;47256;-59
2022/02/04 04:01:33;;;;;;;;;10.67;10.00;;;;;11.14;64.64;101039.16;2076144;28;48073;-58
2022/02/04 04:02:33;;;;;;;;;11.67;10.00;;;;;11.13;64.91;101040.94;2079377;28;47578;-56
2022/02/04 04:03:34;;;;;;;;;8.67;8.67;;;;;11.14;64.59;101049.78;2078162;28;47687;-58
2022/02/04 04:04:35;;;;;;;;;10.33;10.00;;;;;11.14;64.86;101044.47;2078754;28;48103;-57
2022/02/04 04:05:44;;;;;;;;;10.25;9.75;;;;;11.13;64.38;101043.59;2078136;28;48041;-57
2022/02/04 04:06:47;;;;;;;;;10.75;9.75;;;;;11.14;64.47;101044.47;2079139;28;47524;-57
2022/02/04 04:07:49;;;;;;;;;10.00;10.00;;;;;11.12;64.61;101044.50;2066625;28;47665;-58
2022/02/04 04:08:53;;;;;;;;;10.25;10.25;;;;;11.13;64.42;101043.59;2070341;28;47474;-58
2022/02/04 04:10:01;;;;;;;;;16.00;12.75;;;;;11.14;64.62;101039.16;2072464;28;47611;-57
2022/02/04 04:11:01;;;;;;;;;10.50;10.50;;;;;11.14;64.37;101042.69;2083085;28;47610;-58
2022/02/04 04:12:02;;;;;;;;;10.33;10.33;;;;;11.14;64.70;101042.69;2078446;28;47251;-58
2022/02/04 04:13:03;;;;;;;;;15.33;12.00;;;;;11.16;64.65;101046.19;2084337;28;47082;-58
2022/02/04 04:14:04;;;;;;;;;17.00;13.00;;;;;11.16;64.56;101037.34;2079755;28;47970;-56
2022/02/04 04:15:08;;;;;;;;;14.50;12.25;;;;;11.16;64.33;101038.22;2073402;28;48056;-56
2022/02/04 04:16:08;;;;;;;;;13.75;10.00;;;;;11.18;64.63;101040.88;2078620;28;47477;-58
2022/02/04 04:17:09;;;;;;;;;14.33;12.67;;;;;11.18;64.42;101043.53;2079707;28;47828;-57
2022/02/04 04:18:12;;;;;;;;;13.00;11.33;;;;;11.19;64.58;101046.16;2074591;28;47376;-58
2022/02/04 04:19:14;;;;;;;;;12.00;11.00;;;;;11.20;64.63;101039.06;2069405;28;47688;-57
2022/02/04 04:20:17;;;;;;;;;6.50;6.50;;;;;11.17;64.26;101041.75;2068963;28;48156;-57
2022/02/04 04:21:17;;;;;;;;;13.50;11.25;;;;;11.17;64.34;101045.28;2084899;28;47699;-53
2022/02/04 04:22:18;;;;;;;;;12.33;12.00;;;;;11.15;64.20;101041.78;2077635;28;47729;-58
2022/02/04 04:23:18;;;;;;;;;13.33;12.33;;;;;11.15;64.61;101041.78;2078721;28;46457;-56
2022/02/04 04:24:19;;;;;;;;;14.33;13.00;;;;;11.16;64.42;101040.00;2077741;28;47585;-56
2022/02/04 04:25:19;;;;;;;;;14.00;13.00;;;;;11.16;64.39;101045.31;2078835;28;47345;-57
2022/02/04 04:26:20;;;;;;;;;11.33;10.33;;;;;11.14;64.43;101040.03;2076972;28;48475;-56
2022/02/04 04:27:20;;;;;;;;;11.67;11.67;;;;;11.16;64.57;101048.84;2061196;28;47744;-57
2022/02/04 04:28:20;;;;;;;;;11.33;11.00;;;;;11.17;64.59;101039.09;2060711;28;48004;-56
2022/02/04 04:29:21;;;;;;;;;13.00;12.00;;;;;11.16;64.51;101032.91;2079742;28;47633;-58
2022/02/04 04:30:23;;;;;;;;;18.67;15.67;;;;;11.16;64.47;101035.56;2079661;28;48125;-58
2022/02/04 04:31:24;;;;;;;;;16.75;16.00;;;;;11.15;64.69;101038.25;2086278;28;48439;-57
2022/02/04 04:32:24;;;;;;;;;12.67;12.67;;;;;11.15;64.66;101035.59;2087951;28;47685;-56
2022/02/04 04:33:25;;;;;;;;;18.00;14.67;;;;;11.15;64.41;101035.59;2081634;28;47378;-58
2022/02/04 04:34:25;;;;;;;;;11.67;10.67;;;;;11.16;64.55;101043.53;2093418;28;47269;-56
2022/02/04 04:35:28;;;;;;;;;17.67;15.00;;;;;11.16;64.56;101042.66;2096497;28;47418;-58
2022/02/04 04:36:29;;;;;;;;;15.00;13.00;;;;;11.15;64.51;101033.81;2096642;28;47098;-59
2022/02/04 04:37:29;;;;;;;;;14.25;11.50;;;;;11.15;64.76;101035.59;2092815;28;48105;-56
2022/02/04 04:38:52;;;;;;;;;15.67;13.33;;;;;11.14;64.77;101037.38;2096183;28;47459;-55
2022/02/04 04:41:08;;;;;;;;;16.00;14.00;;;;;11.14;64.74;101044.47;2096439;28;47072;-56
2022/02/04 04:43:31;;;;;;;;;12.00;11.33;;;;;11.13;64.60;101030.31;2096561;28;47529;-57
2022/02/04 05:25:44;;;;;;;;;17.75;17.50;;;;;11.09;64.81;101025.97;2088140;28;47395;-57
2022/02/04 05:26:29;;;;;;;;;15.50;15.50;;;;;11.08;65.13;101002.09;2087005;28;48442;-58
2022/02/04 05:29:51;;;;;;;;;15.25;15.25;;;;;11.09;65.15;101006.50;2089101;28;47826;-57
2022/02/04 05:30:52;;;;;;;;;17.50;15.00;;;;;11.09;65.12;101006.50;2088108;28;47466;-56
2022/02/04 05:31:53;;;;;;;;;22.00;21.00;;;;;11.09;65.25;101002.06;2082381;28;48023;-55
2022/02/04 05:32:53;;;;;;;;;16.25;14.25;;;;;11.10;65.14;101005.59;2080085;28;47796;-55
2022/02/04 05:33:53;;;;;;;;;18.75;17.00;;;;;11.10;65.14;101014.44;2093675;28;48141;-57
2022/02/04 05:34:54;;;;;;;;;15.75;14.75;;;;;11.11;65.13;101010.00;2087226;28;47937;-56
2022/02/04 05:35:54;;;;;;;;;17.67;17.67;;;;;11.10;65.23;101008.25;2087219;28;47923;-57
2022/02/04 05:37:03;;;;;;;;;16.00;16.00;;;;;11.11;65.22;101010.00;2088345;28;47693;-56
2022/02/04 05:38:04;;;;;;;;;16.75;16.75;;;;;11.09;65.13;101012.69;2093518;28;48159;-56
2022/02/04 05:39:04;;;;;;;;;16.75;16.75;;;;;11.10;64.93;101009.13;2097444;28;48280;-55
2022/02/04 05:40:10;;;;;;;;;24.25;21.00;;;;;11.11;65.16;100996.72;2088809;28;47604;-58
2022/02/04 05:41:13;;;;;;;;;15.75;15.25;;;;;11.11;65.18;101004.69;2089451;28;47979;-58
2022/02/04 05:42:20;;;;;;;;;16.00;16.00;;;;;11.11;65.37;101010.00;2087058;28;48087;-57
2022/02/04 05:43:24;;;;;;;;;16.00;15.00;;;;;11.12;65.29;101007.31;2080196;28;48354;-57
2022/02/04 05:44:25;;;;;;;;;13.40;12.60;;;;;11.12;65.10;100996.69;2088086;28;48495;-56
2022/02/04 05:45:30;;;;;;;;;21.00;18.25;;;;;11.14;65.40;101000.19;2096939;28;47668;-56
2022/02/04 05:46:35;;;;;;;;;18.20;16.40;;;;;11.13;65.34;100997.56;2089064;28;48140;-58
2022/02/04 05:47:36;;;;;;;;;19.00;18.50;;;;;11.14;65.18;100994.88;2080075;28;47745;-58
2022/02/04 05:48:39;;;;;;;;;22.50;20.25;;;;;11.13;65.25;101008.19;2080085;28;47524;-57
2022/02/04 05:49:46;;;;;;;;;18.25;16.00;;;;;11.11;65.31;100997.59;2096878;28;47575;-56
2022/02/04 05:51:26;;;;;;;;;22.40;21.20;;;;;11.11;65.31;101000.25;2097170;28;48171;-56
2022/02/04 05:52:20;;;;;;;;;14.00;14.00;;;;;11.12;65.25;100998.47;2097347;28;47865;-59
2022/02/04 05:53:27;;;;;;;;;20.40;19.00;;;;;11.13;65.27;100998.44;2097321;28;47589;-58
2022/02/04 05:56:50;;;;;;;;;17.67;17.33;;;;;11.14;65.37;100991.34;2090276;28;47024;-58
2022/02/04 05:58:12;;;;;;;;;20.80;19.00;;;;;11.14;65.25;100989.56;2084752;28;47352;-58
2022/02/04 06:01:41;;;;;;;;;18.75;16.50;;;;;11.14;65.22;100991.34;2085484;28;47522;-57
2022/02/04 06:03:12;;;;;;;;;18.20;17.20;;;;;11.14;64.87;100996.66;2089674;28;46852;-58
2022/02/04 06:05:16;;;;;;;;;20.50;20.50;;;;;11.14;65.07;100994.88;2085484;28;47750;-59
2022/02/04 06:06:41;;;;;;;;;16.50;16.50;;;;;11.13;65.44;100989.59;2093921;28;47463;-57
2022/02/04 06:08:03;;;;;;;;;18.75;18.00;;;;;11.13;65.17;100986.94;2086144;28;48215;-57
2022/02/04 06:13:31;;;;;;;;;19.20;18.00;;;;;11.14;65.23;100986.91;2039108;28;48100;-57
2022/02/04 06:22:28;;;;;;;;;17.40;15.00;;;;;11.09;65.58;100996.75;2046418;28;48042;-59
2022/02/04 06:23:27;;;;;;;;;19.60;17.40;;;;;11.09;65.23;101002.06;2042875;28;45838;-56
2022/02/04 06:24:27;;;;;;;;;22.50;20.75;;;;;11.08;65.66;100995.00;2043432;28;48135;-58
2022/02/04 06:25:28;;;;;;;;;25.00;22.75;;;;;11.08;65.22;101005.63;2045178;28;47291;-58
2022/02/04 06:26:30;;;;;;;;;20.50;19.25;;;;;11.09;65.58;101001.19;2042853;28;48070;-60
2022/02/04 06:27:31;;;;;;;;;21.80;19.20;;;;;11.08;65.65;100995.00;2042116;28;47956;-57
2022/02/04 06:28:31;;;;;;;;;22.75;22.75;;;;;11.07;65.70;100990.63;2044804;28;47756;-57
2022/02/04 06:29:33;;;;;;;;;22.25;21.50;;;;;11.07;65.73;100993.25;2044935;28;48197;-56
2022/02/04 06:30:34;;;;;;;;;21.60;19.60;;;;;11.08;65.86;100989.69;2045450;28;47770;-56
2022/02/04 06:31:35;;;;;;;;;21.20;19.80;;;;;11.07;65.77;100987.97;2044112;28;45821;-57
2022/02/04 06:32:36;;;;;;;;;24.00;22.25;;;;;11.08;65.77;100995.00;2040166;28;45872;-57
2022/02/04 06:33:36;;;;;;;;;21.75;18.75;;;;;11.08;65.66;100987.03;2041824;28;47887;-57
2022/02/04 06:34:37;;;;;;;;;23.00;21.00;;;;;11.09;65.46;100988.78;2034605;28;47572;-57
2022/02/04 06:35:41;;;;;;;;;19.25;18.50;;;;;11.10;65.76;100993.19;2038690;28;48281;-55
2022/02/04 06:36:41;;;;;;;;;22.60;20.40;;;;;11.11;65.73;101008.22;2045570;28;48519;-58
2022/02/04 06:37:42;;;;;;;;;21.75;20.50;;;;;11.11;65.70;100996.72;2042034;28;47749;-57
2022/02/04 06:38:42;;;;;;;;;23.00;21.25;;;;;11.10;65.68;100994.97;2043061;28;47401;-58
2022/02/04 06:39:43;;;;;;;;;22.00;20.50;;;;;11.09;65.88;101001.19;2038755;28;47116;-56
2022/02/04 06:40:43;;;;;;;;;26.00;26.00;;;;;11.08;65.86;101002.97;2040161;28;47354;-58
2022/02/04 06:41:44;;;;;;;;;22.75;21.75;;;;;11.07;66.07;100992.41;2044384;28;47661;-58
2022/02/04 06:42:44;;;;;;;;;21.00;19.67;;;;;11.06;65.69;100999.47;2043707;28;47717;-57
2022/02/04 06:43:44;;;;;;;;;21.00;21.00;;;;;11.07;65.50;100992.41;2040986;28;47953;-58
2022/02/04 06:44:45;;;;;;;;;21.50;19.25;;;;;11.07;65.94;100997.69;2032037;28;48299;-56
2022/02/04 06:45:45;;;;;;;;;20.25;18.50;;;;;11.08;65.75;100999.44;2039057;28;47496;-57
2022/02/04 06:46:46;;;;;;;;;20.75;20.25;;;;;11.07;66.00;100982.63;2047006;28;45842;-57
2022/02/04 06:47:47;;;;;;;;;22.25;19.50;;;;;11.05;65.45;100973.84;2042217;28;47042;-58
2022/02/04 06:48:50;;;;;;;;;22.50;20.75;;;;;11.03;65.77;100972.09;2032485;28;48099;-57
2022/02/04 06:49:51;;;;;;;;;22.00;19.50;;;;;11.02;65.92;100976.53;2077973;28;47382;-56
2022/02/04 06:50:51;;;;;;;;;23.75;21.00;;;;;11.01;65.71;100977.44;2078007;28;48068;-57
2022/02/04 06:51:52;;;;;;;;;19.00;18.25;;;;;11.01;65.81;100987.19;2080421;28;47709;-58
2022/02/04 06:52:53;;;;;;;;;25.00;22.75;;;;;11.01;65.92;100987.19;2079707;28;47852;-57
2022/02/04 06:53:54;;;;;;;;;24.00;21.00;;;;;11.00;65.58;100977.47;2080123;28;47997;-59
2022/02/04 06:54:54;;;;;;;;;25.25;20.75;;;;;11.01;65.67;100979.22;2079804;28;47449;-55
2022/02/04 06:55:55;;;;;;;;;19.00;16.00;;;;;11.01;65.84;100974.78;2080506;28;47089;-58
2022/02/04 06:56:55;;;;;;;;;19.25;18.75;;;;;11.03;65.89;100975.63;2070511;28;47983;-58
2022/02/04 06:57:57;;;;;;;;;19.25;18.00;;;;;11.04;65.98;100973.84;2069347;28;47651;-56
2022/02/04 06:58:58;;;;;;;;;20.40;18.60;;;;;11.06;65.76;100980.91;2080218;28;47724;-57
2022/02/04 06:59:58;;;;;;;;;21.50;18.75;;;;;11.06;65.58;100975.59;2084950;28;47994;-57
2022/02/04 07:00:59;;;;;;;;;21.60;19.60;;;;;11.08;65.76;100975.56;2080070;28;47698;-59
2022/02/04 07:02:00;;;;;;;;;20.50;20.25;;;;;11.07;65.90;100976.47;2080590;28;46960;-58
2022/02/04 07:03:00;;;;;;;;;20.75;18.25;;;;;11.06;65.48;100972.94;2080647;28;47475;-58
2022/02/04 07:04:06;;;;;;;;;22.25;19.00;;;;;11.03;66.03;100975.63;2080478;28;47858;-56
2022/02/04 07:05:11;;;;;;;;;22.80;19.00;;;;;11.02;65.94;100976.53;2080338;28;47762;-58
2022/02/04 07:06:15;;;;;;;;;20.40;18.60;;;;;11.01;65.85;100980.09;2080765;28;47614;-56
2022/02/04 07:07:17;;;;;;;;;18.00;15.50;;;;;11.02;65.98;100978.31;2078843;28;48391;-57
2022/02/04 07:08:24;;;;;;;;;12.50;12.00;;;;;11.02;66.01;100979.19;2074071;28;47927;-56
2022/02/04 07:09:38;;;;;;;;;20.60;19.20;;;;;11.01;66.03;100977.44;2075666;28;47344;-58
2022/02/04 07:16:56;;;;;;;;;19.20;18.40;;;;;11.04;66.08;100993.31;2070929;28;47704;-59
2022/02/04 07:20:16;;;;;;;;;21.80;21.80;;;;;11.05;65.83;100981.81;2071263;28;47458;-60
2022/02/04 07:21:16;;;;;;;;;23.50;20.00;;;;;11.04;65.87;100979.16;2071099;28;48256;-59
2022/02/04 07:22:17;;;;;;;;;19.50;17.75;;;;;11.02;66.13;100981.84;2070777;28;47467;-57
2022/02/04 07:23:17;;;;;;;;;22.75;19.50;;;;;11.02;65.85;100981.84;2071132;28;47676;-57
2022/02/04 07:24:17;;;;;;;;;23.00;21.25;;;;;11.02;66.03;100986.28;2070401;28;47097;-59
2022/02/04 07:25:18;;;;;;;;;23.00;21.25;;;;;11.01;65.80;100977.44;2070904;28;47522;-55
2022/02/04 07:26:18;;;;;;;;;19.00;18.50;;;;;11.01;66.25;100993.38;2070423;28;47424;-56
2022/02/04 07:27:20;;;;;;;;;21.25;17.75;;;;;11.00;66.15;100975.69;2062884;28;47750;-58
2022/02/04 07:28:20;;;;;;;;;20.00;18.60;;;;;11.00;66.33;100988.09;2062783;28;47723;-57
2022/02/04 07:29:21;;;;;;;;;18.50;16.75;;;;;11.00;66.03;100985.44;2071025;28;46736;-57
2022/02/04 07:30:21;;;;;;;;;23.25;21.75;;;;;11.00;66.35;100978.34;2070625;28;47432;-57
2022/02/04 07:31:22;;;;;;;;;17.75;17.75;;;;;11.00;66.31;100981.00;2070676;28;47955;-58
2022/02/04 07:32:47;;;;;;;;;27.20;24.00;;;;;11.00;66.42;100975.69;2070351;28;47881;-58
2022/02/04 07:33:52;;;;;;;;;20.00;20.00;;;;;11.02;66.06;100973.88;2070480;28;47520;-61
2022/02/04 07:41:01;;;;;;;;;18.60;18.60;;;;;11.09;66.34;100977.28;2070620;28;48200;-58
2022/02/04 07:42:02;;;;;;;;;20.20;18.40;;;;;11.08;66.11;100975.56;2071037;28;48035;-58
2022/02/04 07:43:03;;;;;;;;;22.40;20.80;;;;;11.09;66.11;100969.34;2062717;28;47827;-55
2022/02/04 07:44:04;;;;;;;;;20.00;17.00;;;;;11.10;66.31;100965.75;2070786;28;47717;-58
2022/02/04 07:45:04;;;;;;;;;20.00;18.67;;;;;11.11;66.42;100970.16;2078542;28;47043;-56
2022/02/04 07:46:05;;;;;;;;;22.00;21.25;;;;;11.13;66.39;100971.88;2062661;28;47645;-54
2022/02/04 07:47:06;;;;;;;;;20.75;19.25;;;;;11.14;66.44;100967.44;2062028;28;48090;-58